Terminal Aerodrome Forecast
Issued by NWS Rapid City, SD

Home | Current Version | Previous Version | Graphics & Text | Print | Product List | Glossary On
Versions: 1 2 3 4 5 6 7 8 9 10 11 12 13 14 15 16 17 18 19
537
FTUS43 KUNR 200920 AAB
TAFRAP
TAF AMD
KRAP 200920Z 2009/2106 34006KT P6SM SCT050 BKN100
     FM201800 36008KT P6SM BKN040
     FM202000 36010KT 2SM -SN OVC015
     FM210000 34008KT 1SM -SN OVC010=

USA.gov is the U.S. government's official web portal to all federal, state and local government web resources and services.